createdAt,value
2022-07-27T00:01:57.144Z,101967.34
2022-07-27T00:04:24.312Z,101969.03
2022-07-27T00:06:51.650Z,101963.72
2022-07-27T00:09:20.250Z,101962.81
2022-07-27T00:11:47.712Z,101967.06
2022-07-27T00:14:15.301Z,101952.19
2022-07-27T00:16:42.429Z,101965.28
2022-07-27T00:19:10.102Z,101960.94
2022-07-27T00:21:42.402Z,101949.47
2022-07-27T00:24:12.429Z,101961.59
2022-07-27T00:26:39.515Z,101957.28
2022-07-27T00:29:06.760Z,101957.19
2022-07-27T00:31:34.933Z,101953.66
2022-07-27T00:34:02.078Z,101968.34
2022-07-27T00:36:29.077Z,101962.22
2022-07-27T00:38:57.860Z,101958.69
2022-07-27T00:41:24.873Z,101959.44
2022-07-27T00:43:59.024Z,101954.06
2022-07-27T00:46:28.227Z,101953.06
2022-07-27T00:48:58.236Z,101944.19
2022-07-27T00:51:26.712Z,101954.69
2022-07-27T00:53:56.203Z,101950.25
2022-07-27T00:56:23.559Z,101953.63
2022-07-27T00:58:53.344Z,101955.31
2022-07-27T01:01:20.960Z,101951.00
2022-07-27T01:03:48.421Z,101961.34
2022-07-27T01:06:26.983Z,101950.94
2022-07-27T01:09:17.715Z,101949.88
2022-07-27T01:11:46.094Z,101959.44
2022-07-27T01:14:14.829Z,101961.16
2022-07-27T01:16:42.463Z,101948.97
2022-07-27T01:19:10.866Z,101949.84
2022-07-27T01:21:38.746Z,101963.66
2022-07-27T01:24:07.154Z,101964.53
2022-07-27T01:26:36.729Z,101950.59
2022-07-27T01:29:05.951Z,101941.75
2022-07-27T01:31:33.025Z,101951.47
2022-07-27T01:34:00.369Z,101956.63
2022-07-27T01:36:27.460Z,101952.28
2022-07-27T01:38:56.269Z,101956.53
2022-07-27T01:41:25.237Z,101951.19
2022-07-27T01:43:52.281Z,101950.13
2022-07-27T01:46:19.862Z,101951.00
2022-07-27T01:48:46.965Z,101945.72
2022-07-27T01:51:13.996Z,101949.09
2022-07-27T01:53:41.204Z,101954.25
2022-07-27T01:56:12.301Z,101949.00
2022-07-27T01:58:41.546Z,101948.91
2022-07-27T02:01:08.790Z,101945.44
2022-07-27T02:03:36.515Z,101938.38
2022-07-27T02:06:04.927Z,101941.84
2022-07-27T02:08:32.124Z,101936.47
2022-07-27T02:11:17.658Z,101937.25
2022-07-27T02:13:47.235Z,101942.38
2022-07-27T02:16:18.287Z,101942.25
2022-07-27T02:18:46.126Z,101940.41
2022-07-27T02:21:16.725Z,101932.59
2022-07-27T02:23:45.033Z,101937.88
2022-07-27T02:26:12.111Z,101941.31
2022-07-27T02:28:39.330Z,101930.94
2022-07-27T02:31:06.504Z,101938.56
2022-07-27T02:33:34.578Z,101941.13
2022-07-27T02:36:01.808Z,101931.53
2022-07-27T02:38:28.951Z,101916.56
2022-07-27T02:40:57.425Z,101924.31
2022-07-27T02:43:25.319Z,101935.69
2022-07-27T02:45:52.443Z,101941.69
2022-07-27T02:48:20.558Z,101933.88
2022-07-27T02:50:47.630Z,101926.63
2022-07-27T02:53:14.709Z,101937.09
2022-07-27T02:55:41.762Z,101935.28
2022-07-27T02:58:08.806Z,101942.09
2022-07-27T03:00:35.848Z,101935.03
2022-07-27T03:03:02.931Z,101936.63
2022-07-27T03:05:30.226Z,101925.09
2022-07-27T03:07:57.366Z,101933.03
2022-07-27T03:10:25.354Z,101934.63
2022-07-27T03:12:52.434Z,101933.78
2022-07-27T03:15:20.491Z,101933.78
2022-07-27T03:17:47.529Z,101923.34
2022-07-27T03:20:14.747Z,101939.72
2022-07-27T03:22:42.739Z,101940.50
2022-07-27T03:25:10.220Z,101937.75
2022-07-27T03:27:37.436Z,101929.72
2022-07-27T03:30:06.472Z,101941.06
2022-07-27T03:32:35.201Z,101935.00
2022-07-27T03:35:02.396Z,101935.00
2022-07-27T03:37:29.468Z,101936.72
2022-07-27T03:39:59.323Z,101934.97
2022-07-27T03:42:26.510Z,101938.22
2022-07-27T03:44:53.794Z,101931.13
2022-07-27T03:47:20.860Z,101944.25
2022-07-27T03:49:47.859Z,101951.00
2022-07-27T03:52:17.812Z,101946.59
2022-07-27T03:54:48.069Z,101951.69
2022-07-27T03:57:15.334Z,101955.88
2022-07-27T03:59:42.620Z,101951.56
2022-07-27T04:02:09.710Z,101948.94
2022-07-27T04:04:36.813Z,101954.81
2022-07-27T04:07:04.475Z,101950.38
2022-07-27T04:09:31.498Z,101954.78
2022-07-27T04:11:59.076Z,101949.59
2022-07-27T04:14:26.659Z,101953.91
2022-07-27T04:16:53.880Z,101952.16
2022-07-27T04:19:21.075Z,101950.50
2022-07-27T04:21:48.088Z,101954.81
2022-07-27T04:24:15.544Z,101954.00
2022-07-27T04:26:42.607Z,101960.16
2022-07-27T04:29:09.855Z,101964.69
2022-07-27T04:31:37.163Z,101964.47
2022-07-27T04:34:04.672Z,101974.06
2022-07-27T04:36:31.770Z,101974.03
2022-07-27T04:38:59.286Z,101970.59
2022-07-27T04:41:30.498Z,101978.38
2022-07-27T04:43:58.708Z,101977.59
2022-07-27T04:46:28.151Z,101976.03
2022-07-27T04:48:58.510Z,101980.56
2022-07-27T04:51:28.981Z,101979.00
2022-07-27T04:53:59.663Z,101971.22
2022-07-27T04:56:27.276Z,101983.84
2022-07-27T04:58:57.987Z,101982.22
2022-07-27T05:01:30.356Z,101983.38
2022-07-27T05:04:00.454Z,101982.66
2022-07-27T05:06:27.557Z,101982.78
2022-07-27T05:08:56.741Z,101982.97
2022-07-27T05:11:23.731Z,101989.25
2022-07-27T05:13:51.056Z,101995.38
2022-07-27T05:16:18.229Z,101987.72
2022-07-27T05:18:46.061Z,101990.19
2022-07-27T05:21:13.136Z,101991.28
2022-07-27T05:23:40.275Z,101990.28
2022-07-27T05:26:07.673Z,101998.31
2022-07-27T05:28:35.910Z,102008.09
2022-07-27T05:31:02.946Z,102010.09
2022-07-27T05:33:30.068Z,102010.38
2022-07-27T05:35:57.757Z,102004.63
2022-07-27T05:38:27.202Z,102007.56
2022-07-27T05:40:56.121Z,102015.69
2022-07-27T05:43:23.592Z,102009.84
2022-07-27T05:45:50.967Z,102010.94
2022-07-27T05:48:18.014Z,102010.28
2022-07-27T05:50:45.044Z,102015.66
2022-07-27T05:53:12.868Z,102011.38
2022-07-27T05:55:39.866Z,102012.28
2022-07-27T05:58:28.131Z,102014.88
2022-07-27T06:00:57.743Z,102011.44
2022-07-27T06:03:26.990Z,102008.84
2022-07-27T06:06:14.061Z,102016.69
2022-07-27T06:08:41.125Z,102015.81
2022-07-27T06:11:08.365Z,102027.97
2022-07-27T06:13:36.699Z,102013.34
2022-07-27T06:16:05.584Z,102019.41
2022-07-27T06:18:32.640Z,102022.22
2022-07-27T06:21:01.625Z,102018.84
2022-07-27T06:23:31.795Z,102022.56
2022-07-27T06:25:59.148Z,102023.63
2022-07-27T06:28:26.716Z,102023.81
2022-07-27T06:30:53.782Z,102017.94
2022-07-27T06:33:28.318Z,102014.81
2022-07-27T06:36:01.564Z,102015.19
2022-07-27T06:38:29.002Z,102011.34
2022-07-27T06:40:57.496Z,102015.28
2022-07-27T06:43:28.045Z,102015.59
2022-07-27T06:45:57.149Z,102010.69
2022-07-27T06:48:25.408Z,102016.44
2022-07-27T06:50:53.228Z,102024.56
2022-07-27T06:53:21.859Z,102020.44
2022-07-27T06:55:50.701Z,102020.06
2022-07-27T06:58:18.442Z,102022.13
2022-07-27T07:00:47.441Z,102020.81
2022-07-27T07:03:14.589Z,102028.09
2022-07-27T07:05:44.797Z,102025.72
2022-07-27T07:08:12.096Z,102021.56
2022-07-27T07:10:40.459Z,102024.38
2022-07-27T07:13:08.727Z,102027.19
2022-07-27T07:15:37.853Z,102034.34
2022-07-27T07:18:07.716Z,102033.63
2022-07-27T07:20:36.455Z,102040.69
2022-07-27T07:23:05.760Z,102044.16
2022-07-27T07:25:34.754Z,102040.00
2022-07-27T07:28:02.305Z,102043.81
2022-07-27T07:30:29.990Z,102039.63
2022-07-27T07:33:00.362Z,102044.84
2022-07-27T07:35:27.697Z,102038.91
2022-07-27T07:37:56.263Z,102039.03
2022-07-27T07:43:12.935Z,102046.88
2022-07-27T07:45:50.518Z,102052.41
2022-07-27T07:48:21.701Z,102047.34
2022-07-27T07:50:51.880Z,102043.91
2022-07-27T07:53:24.220Z,102039.59
2022-07-27T07:55:52.881Z,102053.56
2022-07-27T07:58:22.929Z,102062.31
2022-07-27T08:00:50.784Z,102053.53
2022-07-27T08:03:20.695Z,102067.13
2022-07-27T08:05:48.096Z,102067.66
2022-07-27T08:08:17.077Z,102075.19
2022-07-27T08:10:44.589Z,102073.31
2022-07-27T08:13:11.612Z,102062.19
2022-07-27T08:15:39.157Z,102063.88
2022-07-27T08:18:06.822Z,102062.44
2022-07-27T08:20:35.736Z,102060.75
2022-07-27T08:23:06.442Z,102065.44
2022-07-27T08:25:34.482Z,102068.03
2022-07-27T08:28:02.000Z,102061.91
2022-07-27T08:30:30.346Z,102071.50
2022-07-27T08:33:01.358Z,102065.41
2022-07-27T08:35:29.606Z,102067.25
2022-07-27T08:37:57.826Z,102070.78
2022-07-27T08:40:44.816Z,102072.69
2022-07-27T08:43:21.497Z,102070.13
2022-07-27T08:45:57.339Z,102065.84
2022-07-27T08:48:25.486Z,102072.19
2022-07-27T08:50:53.486Z,102070.69
2022-07-27T08:53:22.172Z,102075.16
2022-07-27T08:55:51.085Z,102083.06
2022-07-27T08:58:18.413Z,102078.78
2022-07-27T09:00:48.370Z,102078.88
2022-07-27T09:03:20.119Z,102074.56
2022-07-27T09:05:53.745Z,102062.31
2022-07-27T09:08:24.650Z,102064.97
2022-07-27T09:10:57.448Z,102070.34
2022-07-27T09:13:28.793Z,102062.50
2022-07-27T09:16:21.078Z,102067.69
2022-07-27T09:18:57.882Z,102065.97
2022-07-27T09:21:25.500Z,102064.25
2022-07-27T09:23:58.608Z,102068.59
2022-07-27T09:26:32.523Z,102062.47
2022-07-27T09:29:05.739Z,102066.84
2022-07-27T09:31:40.047Z,102074.72
2022-07-27T09:34:07.399Z,102079.09
2022-07-27T09:36:50.011Z,102080.00
2022-07-27T09:39:20.624Z,102075.56
2022-07-27T09:41:51.100Z,102074.72
2022-07-27T09:44:31.940Z,102068.56
2022-07-27T09:47:00.039Z,102079.09
2022-07-27T09:49:35.957Z,102066.84
2022-07-27T09:52:04.873Z,102066.88
2022-07-27T09:54:45.131Z,102068.53
2022-07-27T09:57:12.431Z,102070.13
2022-07-27T09:59:39.968Z,102063.06
2022-07-27T10:02:07.904Z,102067.47
2022-07-27T10:04:36.091Z,102065.75
2022-07-27T10:07:09.334Z,102072.66
2022-07-27T10:09:37.922Z,102085.69
2022-07-27T10:12:11.233Z,102062.91
2022-07-27T10:14:38.492Z,102069.88
2022-07-27T10:17:07.159Z,102080.41
2022-07-27T10:19:50.841Z,102066.47
2022-07-27T10:22:58.479Z,102073.47
2022-07-27T10:25:32.452Z,102077.84
2022-07-27T10:28:18.693Z,102070.94
2022-07-27T10:30:52.182Z,102073.63
2022-07-27T10:33:42.986Z,102064.06
2022-07-27T10:36:37.299Z,102064.97
2022-07-27T10:39:06.607Z,102071.94
2022-07-27T10:41:41.136Z,102071.97
2022-07-27T10:44:20.036Z,102062.38
2022-07-27T10:47:02.770Z,102064.09
2022-07-27T10:49:32.863Z,102073.69
2022-07-27T10:52:07.513Z,102066.69
2022-07-27T10:54:38.716Z,102065.94
2022-07-27T10:57:08.883Z,102058.13
2022-07-27T11:00:07.398Z,102059.88
2022-07-27T11:02:42.591Z,102051.97
2022-07-27T11:05:53.851Z,102050.94
2022-07-27T11:08:36.040Z,102039.28
2022-07-27T11:10:48.023Z,102038.34
2022-07-27T11:13:19.655Z,102042.13
2022-07-27T11:16:22.822Z,102030.88
2022-07-27T11:19:04.678Z,102040.63
2022-07-27T11:21:35.928Z,102040.59
2022-07-27T11:24:06.540Z,102039.72
2022-07-27T11:26:39.876Z,102037.13
2022-07-27T11:29:09.133Z,102037.09
2022-07-27T11:31:54.656Z,102034.47
2022-07-27T11:34:30.005Z,102034.47
2022-07-27T11:37:01.803Z,102024.88
2022-07-27T11:39:59.687Z,102024.88
2022-07-27T11:42:23.629Z,102015.19
2022-07-27T11:44:52.630Z,102020.47
2022-07-27T11:47:21.571Z,102026.59
2022-07-27T11:49:49.671Z,102025.75
2022-07-27T11:52:18.800Z,102035.38
2022-07-27T11:54:52.509Z,102032.72
2022-07-27T11:57:21.139Z,102035.06
2022-07-27T11:59:49.600Z,102034.38
2022-07-27T12:02:22.743Z,102035.75
2022-07-27T12:05:02.379Z,102040.53
2022-07-27T12:07:32.338Z,102050.25
2022-07-27T12:10:02.201Z,102051.13
2022-07-27T12:12:32.034Z,102046.69
2022-07-27T12:15:22.337Z,102053.72
2022-07-27T12:17:59.239Z,102052.81
2022-07-27T12:20:35.658Z,102046.59
2022-07-27T12:23:07.792Z,102043.09
2022-07-27T12:25:37.372Z,102046.59
2022-07-27T12:28:07.559Z,102039.63
2022-07-27T12:30:44.681Z,102044.88
2022-07-27T12:33:28.850Z,102033.53
2022-07-27T12:35:58.632Z,102037.09
2022-07-27T12:38:43.618Z,102030.09
2022-07-27T12:41:11.229Z,102016.66
2022-07-27T12:43:38.459Z,102026.13
2022-07-27T12:46:13.491Z,102023.72
2022-07-27T12:48:42.402Z,102024.38
2022-07-27T12:51:10.977Z,102018.09
2022-07-27T12:53:38.472Z,102021.91
2022-07-27T12:56:12.630Z,102026.03
2022-07-27T12:58:57.108Z,102028.09
2022-07-27T13:01:24.238Z,102031.38
2022-07-27T13:03:51.352Z,102038.84
2022-07-27T13:06:18.426Z,102031.59
2022-07-27T13:08:45.623Z,102032.03
2022-07-27T13:11:13.902Z,102024.69
2022-07-27T13:13:41.464Z,102030.38
2022-07-27T13:16:08.548Z,102031.31
2022-07-27T13:18:35.976Z,102034.81
2022-07-27T13:21:03.037Z,102034.22
2022-07-27T13:23:30.166Z,102027.75
2022-07-27T13:26:00.009Z,102021.88
2022-07-27T13:28:27.283Z,102026.47
2022-07-27T13:30:56.023Z,102024.91
2022-07-27T13:33:23.207Z,102019.81
2022-07-27T13:35:51.744Z,102036.63
2022-07-27T13:38:28.541Z,102027.81
2022-07-27T13:40:57.305Z,102018.44
2022-07-27T13:43:24.386Z,102012.19
2022-07-27T13:45:51.703Z,102015.84
2022-07-27T13:48:21.078Z,102010.56
2022-07-27T13:50:48.155Z,102012.88
2022-07-27T13:53:16.782Z,102016.78
2022-07-27T13:55:44.740Z,102015.09
2022-07-27T13:58:11.880Z,102015.31
2022-07-27T14:00:42.270Z,102017.47
2022-07-27T14:03:09.645Z,102006.47
2022-07-27T14:05:40.106Z,101993.19
2022-07-27T14:08:18.641Z,101986.81
2022-07-27T14:10:46.777Z,101995.16
2022-07-27T14:13:15.857Z,101998.06
2022-07-27T14:15:53.341Z,101993.44
2022-07-27T14:18:29.829Z,101990.97
2022-07-27T14:21:00.592Z,101978.09
2022-07-27T14:23:27.916Z,101982.59
2022-07-27T14:25:58.072Z,101979.13
2022-07-27T14:28:26.870Z,101980.09
2022-07-27T14:30:57.277Z,101978.28
2022-07-27T14:33:25.796Z,101970.41
2022-07-27T14:35:59.844Z,101973.44
2022-07-27T14:38:31.031Z,101964.28
2022-07-27T14:40:59.809Z,101957.34
2022-07-27T14:43:27.954Z,101957.53
2022-07-27T14:45:57.708Z,101960.22
2022-07-27T14:48:42.595Z,101964.56
2022-07-27T14:51:12.902Z,101962.38
2022-07-27T14:53:39.913Z,101959.59
2022-07-27T14:56:07.004Z,101949.41
2022-07-27T14:58:34.582Z,101957.31
2022-07-27T15:01:02.016Z,101954.31
2022-07-27T15:03:29.207Z,101950.41
2022-07-27T15:05:57.630Z,101951.69
2022-07-27T15:08:25.827Z,101950.34
2022-07-27T15:10:52.895Z,101944.63
2022-07-27T15:13:20.926Z,101951.66
2022-07-27T15:15:48.827Z,101956.97
2022-07-27T15:18:18.657Z,101959.22
2022-07-27T15:20:47.827Z,101958.34
2022-07-27T15:23:15.998Z,101960.75
2022-07-27T15:25:43.021Z,101961.91
2022-07-27T15:28:10.761Z,101941.69
2022-07-27T15:30:38.770Z,101948.56
2022-07-27T15:33:07.425Z,101952.19
2022-07-27T15:35:35.924Z,101951.50
2022-07-27T15:38:05.953Z,101945.63
2022-07-27T15:40:40.066Z,101942.72
2022-07-27T15:43:16.170Z,101944.59
2022-07-27T15:45:49.965Z,101948.63
2022-07-27T15:48:20.103Z,101948.28
2022-07-27T15:50:51.145Z,101953.69
2022-07-27T15:53:21.203Z,101942.19
2022-07-27T15:55:49.987Z,101941.56
2022-07-27T15:58:20.976Z,101935.03
2022-07-27T16:00:51.165Z,101937.75
2022-07-27T16:03:20.125Z,101928.41
2022-07-27T16:05:50.135Z,101932.72
2022-07-27T16:08:20.110Z,101934.53
2022-07-27T16:10:49.143Z,101943.38
2022-07-27T16:13:17.119Z,101936.94
2022-07-27T16:16:03.587Z,101929.47
2022-07-27T16:18:36.762Z,101935.31
2022-07-27T16:21:07.048Z,101930.13
2022-07-27T16:23:34.789Z,101927.09
2022-07-27T16:26:05.020Z,101925.38
2022-07-27T16:28:40.373Z,101917.22
2022-07-27T16:31:10.147Z,101931.16
2022-07-27T16:33:37.404Z,101933.31
2022-07-27T16:36:06.216Z,101932.94
2022-07-27T16:38:37.707Z,101927.22
2022-07-27T16:41:09.269Z,101937.06
2022-07-27T16:43:38.413Z,101937.44
2022-07-27T16:46:10.584Z,101941.94
2022-07-27T16:48:42.395Z,101924.66
2022-07-27T16:51:14.420Z,101937.00
2022-07-27T16:53:43.966Z,101929.19
2022-07-27T16:56:11.370Z,101935.38
2022-07-27T16:58:39.365Z,101923.16
2022-07-27T17:01:07.643Z,101931.00
2022-07-27T17:03:38.509Z,101935.38
2022-07-27T17:06:07.119Z,101931.81
2022-07-27T17:08:36.524Z,101929.19
2022-07-27T17:11:06.076Z,101921.28
2022-07-27T17:13:35.954Z,101935.25
2022-07-27T17:16:06.224Z,101934.38
2022-07-27T17:18:40.285Z,101933.53
2022-07-27T17:21:12.211Z,101927.50
2022-07-27T17:23:43.871Z,101931.91
2022-07-27T17:26:12.008Z,101930.16
2022-07-27T17:28:40.490Z,101922.31
2022-07-27T17:31:12.248Z,101927.53
2022-07-27T17:33:40.150Z,101925.88
2022-07-27T17:36:14.737Z,101934.63
2022-07-27T17:38:47.039Z,101932.91
2022-07-27T17:41:18.129Z,101920.66
2022-07-27T17:43:50.213Z,101929.38
2022-07-27T17:46:17.493Z,101939.00
2022-07-27T17:48:44.619Z,101934.66
2022-07-27T17:51:11.928Z,101936.44
2022-07-27T17:53:48.089Z,101926.84
2022-07-27T17:56:15.102Z,101927.72
2022-07-27T17:58:46.255Z,101920.75
2022-07-27T18:01:13.343Z,101932.13
2022-07-27T18:03:41.549Z,101937.38
2022-07-27T18:06:08.611Z,101935.63
2022-07-27T18:08:38.666Z,101930.41
2022-07-27T18:11:07.237Z,101932.13
2022-07-27T18:13:39.669Z,101936.50
2022-07-27T18:16:09.295Z,101934.78
2022-07-27T18:18:37.101Z,101940.88
2022-07-27T18:21:05.043Z,101933.84
2022-07-27T18:23:32.610Z,101931.22
2022-07-27T18:25:59.643Z,101937.34
2022-07-27T18:28:27.115Z,101934.72
2022-07-27T18:30:57.358Z,101932.97
2022-07-27T18:33:26.862Z,101933.81
2022-07-27T18:36:05.951Z,101941.69
2022-07-27T18:38:33.034Z,101946.94
2022-07-27T18:41:00.158Z,101948.69
2022-07-27T18:43:27.233Z,101932.91
2022-07-27T18:45:56.710Z,101937.31
2022-07-27T18:48:23.809Z,101943.41
2022-07-27T18:50:53.429Z,101939.91
2022-07-27T18:53:21.596Z,101941.63
2022-07-27T18:55:56.036Z,101950.38
2022-07-27T18:58:24.029Z,101946.00
2022-07-27T19:00:51.394Z,101944.22
2022-07-27T19:03:20.030Z,101950.28
2022-07-27T19:05:50.118Z,101947.69
2022-07-27T19:08:23.880Z,101953.78
2022-07-27T19:10:52.450Z,101949.41
2022-07-27T19:13:20.959Z,101952.00
2022-07-27T19:15:47.983Z,101958.13
2022-07-27T19:18:14.999Z,101965.06
2022-07-27T19:20:42.500Z,101956.31
2022-07-27T19:23:09.820Z,101965.03
2022-07-27T19:25:36.869Z,101969.34
2022-07-27T19:28:04.676Z,101978.03
2022-07-27T19:30:31.982Z,101976.25
2022-07-27T19:33:05.925Z,101979.72
2022-07-27T19:35:32.953Z,101984.88
2022-07-27T19:38:01.013Z,101980.47
2022-07-27T19:40:45.070Z,101983.84
2022-07-27T19:43:13.246Z,101989.06
2022-07-27T19:45:40.704Z,101984.59
2022-07-27T19:48:08.546Z,101995.00
2022-07-27T19:50:36.127Z,101992.34
2022-07-27T19:53:07.737Z,101987.00
2022-07-27T19:55:35.920Z,101978.13
2022-07-27T19:58:02.965Z,102001.72
2022-07-27T20:00:30.757Z,101993.78
2022-07-27T20:02:57.969Z,102012.94
2022-07-27T20:05:25.969Z,102005.00
2022-07-27T20:07:57.285Z,102004.03
2022-07-27T20:10:26.036Z,102013.56
2022-07-27T20:12:53.225Z,102009.13
2022-07-27T20:15:23.618Z,102009.13
2022-07-27T20:17:51.234Z,102011.66
2022-07-27T20:20:19.883Z,102007.19
2022-07-27T20:22:47.072Z,102018.47
2022-07-27T20:25:14.843Z,102019.25
2022-07-27T20:27:42.683Z,102021.75
2022-07-27T20:30:11.019Z,102021.72
2022-07-27T20:32:38.079Z,102026.91
2022-07-27T20:35:06.492Z,102022.50
2022-07-27T20:37:34.748Z,102019.00
2022-07-27T20:40:09.647Z,102025.91
2022-07-27T20:42:36.969Z,102024.06
2022-07-27T20:45:09.981Z,102027.50
2022-07-27T20:47:38.350Z,102029.13
2022-07-27T20:50:10.383Z,102030.81
2022-07-27T20:52:39.755Z,102020.19
2022-07-27T20:55:08.310Z,102020.19
2022-07-27T20:57:36.488Z,102025.25
2022-07-27T21:00:09.616Z,102023.44
2022-07-27T21:02:36.808Z,102026.91
2022-07-27T21:05:07.972Z,102021.59
2022-07-27T21:07:36.207Z,102021.47
2022-07-27T21:10:07.450Z,102030.09
2022-07-27T21:12:34.713Z,102028.28
2022-07-27T21:15:01.775Z,102026.44
2022-07-27T21:17:29.077Z,102026.34
2022-07-27T21:19:57.347Z,102033.25
2022-07-27T21:22:24.413Z,102027.13
2022-07-27T21:24:53.977Z,102039.25
2022-07-27T21:27:22.919Z,102040.97
2022-07-27T21:29:51.283Z,102036.56
2022-07-27T21:32:18.472Z,102036.56
2022-07-27T21:34:45.599Z,102037.41
2022-07-27T21:37:12.718Z,102026.88
2022-07-27T21:39:39.773Z,102035.56
2022-07-27T21:42:07.574Z,102029.38
2022-07-27T21:44:35.401Z,102026.69
2022-07-27T21:47:03.564Z,102019.63
2022-07-27T21:49:34.572Z,102011.66
2022-07-27T21:52:01.889Z,102022.22
2022-07-27T21:54:29.089Z,102022.09
2022-07-27T21:56:57.449Z,102013.28
2022-07-27T21:59:24.470Z,102012.25
2022-07-27T22:01:51.602Z,102017.38
2022-07-27T22:04:19.128Z,102022.50
2022-07-27T22:06:46.957Z,102025.97
2022-07-27T22:09:14.473Z,102030.16
2022-07-27T22:11:42.465Z,102034.47
2022-07-27T22:14:09.673Z,102035.31
2022-07-27T22:16:36.754Z,102034.47
2022-07-27T22:19:04.932Z,102036.19
2022-07-27T22:21:32.312Z,102031.78
2022-07-27T22:23:59.342Z,102032.63
2022-07-27T22:26:27.853Z,102023.75
2022-07-27T22:28:55.280Z,102040.31
2022-07-27T22:31:23.513Z,102039.38
2022-07-27T22:33:51.362Z,102038.44
2022-07-27T22:36:18.693Z,102041.84
2022-07-27T22:38:46.277Z,102046.13
2022-07-27T22:41:13.832Z,102050.44
2022-07-27T22:43:41.155Z,102050.41
2022-07-27T22:46:08.314Z,102044.28
2022-07-27T22:48:36.335Z,102048.69
2022-07-27T22:51:03.634Z,102046.00
2022-07-27T22:53:30.661Z,102046.84
2022-07-27T22:55:57.674Z,102041.44
2022-07-27T22:58:24.780Z,102042.34
2022-07-27T23:00:54.712Z,102044.13
2022-07-27T23:03:26.987Z,102049.31
2022-07-27T23:05:54.007Z,102037.94
2022-07-27T23:08:21.818Z,102039.69
2022-07-27T23:10:50.289Z,102036.06
2022-07-27T23:13:20.362Z,102045.66
2022-07-27T23:15:47.956Z,102051.59
2022-07-27T23:18:16.518Z,102048.97
2022-07-27T23:20:43.946Z,102044.50
2022-07-27T23:23:15.828Z,102043.69
2022-07-27T23:25:45.090Z,102041.88
2022-07-27T23:28:12.291Z,102037.41
2022-07-27T23:30:39.401Z,102037.28
2022-07-27T23:33:06.566Z,102036.41
2022-07-27T23:35:33.723Z,102044.97
2022-07-27T23:38:01.052Z,102037.16
2022-07-27T23:40:28.150Z,102036.22
2022-07-27T23:42:57.145Z,102041.41
2022-07-27T23:45:24.296Z,102032.56
2022-07-27T23:47:52.025Z,102028.16
2022-07-27T23:50:19.109Z,102035.03
2022-07-27T23:52:46.137Z,102023.75
2022-07-27T23:55:13.230Z,102031.53
2022-07-27T23:57:40.249Z,102025.41
